createdAt,value
2018-10-09T00:00:31.334Z,996.04
2018-10-09T00:01:31.331Z,995.97
2018-10-09T00:02:31.327Z,995.98
2018-10-09T00:03:31.325Z,995.95
2018-10-09T00:04:31.323Z,995.96
2018-10-09T00:05:31.320Z,995.96
2018-10-09T00:06:31.326Z,995.97
2018-10-09T00:07:31.329Z,995.91
2018-10-09T00:08:31.311Z,995.9
2018-10-09T00:09:31.310Z,995.95
2018-10-09T00:10:31.306Z,995.93
2018-10-09T00:11:31.301Z,995.91
2018-10-09T00:12:31.299Z,995.93
2018-10-09T00:13:31.309Z,995.97
2018-10-09T00:14:31.291Z,995.96
2018-10-09T00:15:31.289Z,995.98
2018-10-09T00:16:31.286Z,996.02
2018-10-09T00:17:31.289Z,996.01
2018-10-09T00:18:31.282Z,996
2018-10-09T00:19:31.277Z,995.99
2018-10-09T00:20:31.279Z,996.02
2018-10-09T00:21:31.275Z,996.01
2018-10-09T00:22:31.270Z,995.99
2018-10-09T00:23:31.271Z,996
2018-10-09T00:24:31.275Z,996.01
2018-10-09T00:25:31.263Z,996.03
2018-10-09T00:26:31.259Z,996.11
2018-10-09T00:27:31.258Z,996.06
2018-10-09T00:28:31.257Z,996.07
2018-10-09T00:29:31.259Z,996.08
2018-10-09T00:30:31.253Z,996.09
2018-10-09T00:31:31.248Z,996.13
2018-10-09T00:32:31.239Z,996.11
2018-10-09T00:33:31.234Z,996.14
2018-10-09T00:34:31.231Z,996.17
2018-10-09T00:35:31.230Z,996.17
2018-10-09T00:36:31.250Z,996.18
2018-10-09T00:37:31.223Z,996.17
2018-10-09T00:38:31.220Z,996.17
2018-10-09T00:39:31.221Z,996.18
2018-10-09T00:40:31.221Z,996.18
2018-10-09T00:41:31.214Z,996.17
2018-10-09T00:42:31.219Z,996.18
2018-10-09T00:43:31.201Z,996.14
2018-10-09T00:44:31.203Z,996.14
2018-10-09T00:45:31.202Z,996.12
2018-10-09T00:46:31.200Z,996.1
2018-10-09T00:47:31.191Z,996.15
2018-10-09T00:48:31.189Z,996.11
2018-10-09T00:49:31.184Z,996.08
2018-10-09T00:50:31.182Z,996.08
2018-10-09T00:51:31.180Z,996.03
2018-10-09T00:52:31.176Z,996.05
2018-10-09T00:53:31.171Z,996.01
2018-10-09T00:54:31.172Z,996
2018-10-09T00:55:31.174Z,995.99
2018-10-09T00:56:31.172Z,995.98
2018-10-09T00:57:31.171Z,995.96
2018-10-09T00:58:31.169Z,995.97
2018-10-09T00:59:31.152Z,995.9
2018-10-09T01:00:31.162Z,995.87
2018-10-09T01:01:31.146Z,995.85
2018-10-09T01:02:31.142Z,995.82
2018-10-09T01:03:31.137Z,995.8
2018-10-09T01:04:31.134Z,995.79
2018-10-09T01:05:31.133Z,995.77
2018-10-09T01:06:31.128Z,995.77
2018-10-09T01:07:31.123Z,995.8
2018-10-09T01:08:31.122Z,995.79
2018-10-09T01:09:31.120Z,995.78
2018-10-09T01:10:31.112Z,995.78
2018-10-09T01:11:31.113Z,995.81
2018-10-09T01:12:31.106Z,995.85
2018-10-09T01:13:31.103Z,995.82
2018-10-09T01:14:31.101Z,995.86
2018-10-09T01:15:31.098Z,995.85
2018-10-09T01:16:31.097Z,995.84
2018-10-09T01:17:31.093Z,995.85
2018-10-09T01:18:31.086Z,995.84
2018-10-09T01:19:31.084Z,995.87
2018-10-09T01:20:31.079Z,995.83
2018-10-09T01:21:31.079Z,995.87
2018-10-09T01:22:31.076Z,995.87
2018-10-09T01:23:31.073Z,995.92
2018-10-09T01:24:31.067Z,995.91
2018-10-09T01:25:31.067Z,995.93
2018-10-09T01:26:31.061Z,995.91
2018-10-09T01:27:31.057Z,995.92
2018-10-09T01:28:31.057Z,995.89
2018-10-09T01:29:31.051Z,995.88
2018-10-09T01:30:31.051Z,995.89
2018-10-09T01:31:31.048Z,995.89
2018-10-09T01:32:31.046Z,995.9
2018-10-09T01:33:31.059Z,995.92
2018-10-09T01:34:31.034Z,995.91
2018-10-09T01:35:31.033Z,995.92
2018-10-09T01:36:31.028Z,995.9
2018-10-09T01:37:31.025Z,995.92
2018-10-09T01:38:31.021Z,995.92
2018-10-09T01:39:31.020Z,995.9
2018-10-09T01:40:31.014Z,995.93
2018-10-09T01:41:31.011Z,995.95
2018-10-09T01:42:31.007Z,995.94
2018-10-09T01:43:31.019Z,995.92
2018-10-09T01:44:31.000Z,995.95
2018-10-09T01:45:30.998Z,995.95
2018-10-09T01:46:30.993Z,995.95
2018-10-09T01:47:30.995Z,995.96
2018-10-09T01:48:30.989Z,995.94
2018-10-09T01:49:30.985Z,995.94
2018-10-09T01:50:30.980Z,995.93
2018-10-09T01:51:30.976Z,995.9
2018-10-09T01:52:30.980Z,995.94
2018-10-09T01:53:30.968Z,995.91
2018-10-09T01:54:30.973Z,995.87
2018-10-09T01:55:30.963Z,995.87
2018-10-09T01:56:30.960Z,995.81
2018-10-09T01:57:30.958Z,995.9
2018-10-09T01:58:30.963Z,995.85
2018-10-09T01:59:30.952Z,995.82
2018-10-09T02:00:30.954Z,995.89
2018-10-09T02:01:30.942Z,995.9
2018-10-09T02:02:30.944Z,995.86
2018-10-09T02:03:30.939Z,995.83
2018-10-09T02:04:30.938Z,995.86
2018-10-09T02:05:30.929Z,995.84
2018-10-09T02:06:30.929Z,995.86
2018-10-09T02:07:30.928Z,995.84
2018-10-09T02:08:30.927Z,995.82
2018-10-09T02:09:30.919Z,995.76
2018-10-09T02:10:30.913Z,995.81
2018-10-09T02:11:30.909Z,995.75
2018-10-09T02:12:30.907Z,995.75
2018-10-09T02:13:30.904Z,995.68
2018-10-09T02:14:30.900Z,995.66
2018-10-09T02:15:30.895Z,995.69
2018-10-09T02:16:30.892Z,995.65
2018-10-09T02:17:30.889Z,995.68
2018-10-09T02:18:30.884Z,995.66
2018-10-09T02:19:30.891Z,995.62
2018-10-09T02:20:30.881Z,995.59
2018-10-09T02:21:30.874Z,995.63
2018-10-09T02:22:30.873Z,995.63
2018-10-09T02:23:30.871Z,995.61
2018-10-09T02:24:30.863Z,995.59
2018-10-09T02:25:30.870Z,995.53
2018-10-09T02:26:30.860Z,995.55
2018-10-09T02:27:30.867Z,995.52
2018-10-09T02:28:30.853Z,995.46
2018-10-09T02:29:30.854Z,995.46
2018-10-09T02:30:30.846Z,995.51
2018-10-09T02:31:30.842Z,995.44
2018-10-09T02:32:30.836Z,995.45
2018-10-09T02:33:30.868Z,995.5
2018-10-09T02:34:30.839Z,995.48
2018-10-09T02:35:30.826Z,995.51
2018-10-09T02:36:30.821Z,995.55
2018-10-09T02:37:30.823Z,995.58
2018-10-09T02:38:30.820Z,995.55
2018-10-09T02:39:30.818Z,995.6
2018-10-09T02:40:30.811Z,995.6
2018-10-09T02:41:30.805Z,995.59
2018-10-09T02:42:30.803Z,995.64
2018-10-09T02:43:30.803Z,995.59
2018-10-09T02:44:30.800Z,995.64
2018-10-09T02:45:30.788Z,995.62
2018-10-09T02:46:30.785Z,995.61
2018-10-09T02:47:30.785Z,995.63
2018-10-09T02:48:30.780Z,995.61
2018-10-09T02:49:30.776Z,995.66
2018-10-09T02:50:30.771Z,995.68
2018-10-09T02:51:30.766Z,995.63
2018-10-09T02:52:30.765Z,995.65
2018-10-09T02:53:30.760Z,995.66
2018-10-09T02:54:30.758Z,995.65
2018-10-09T02:55:30.750Z,995.62
2018-10-09T02:56:30.757Z,995.6
2018-10-09T02:57:30.744Z,995.58
2018-10-09T02:58:30.738Z,995.57
2018-10-09T02:59:30.736Z,995.6
2018-10-09T03:00:30.734Z,995.53
2018-10-09T03:01:30.730Z,995.51
2018-10-09T03:02:30.723Z,995.52
2018-10-09T03:03:30.717Z,995.56
2018-10-09T03:04:30.717Z,995.61
2018-10-09T03:05:30.711Z,995.63
2018-10-09T03:06:30.707Z,995.66
2018-10-09T03:07:30.708Z,995.69
2018-10-09T03:08:30.728Z,995.72
2018-10-09T03:09:30.702Z,995.79
2018-10-09T03:10:30.691Z,995.73
2018-10-09T03:11:30.688Z,995.77
2018-10-09T03:12:30.693Z,995.79
2018-10-09T03:13:30.679Z,995.78
2018-10-09T03:14:30.676Z,995.79
2018-10-09T03:15:30.673Z,995.79
2018-10-09T03:16:30.668Z,995.74
2018-10-09T03:17:30.665Z,995.73
2018-10-09T03:18:30.667Z,995.73
2018-10-09T03:19:30.659Z,995.74
2018-10-09T03:20:30.666Z,995.78
2018-10-09T03:21:30.655Z,995.74
2018-10-09T03:22:30.653Z,995.74
2018-10-09T03:23:30.642Z,995.73
2018-10-09T03:24:30.640Z,995.73
2018-10-09T03:25:30.635Z,995.71
2018-10-09T03:26:30.631Z,995.71
2018-10-09T03:27:30.627Z,995.69
2018-10-09T03:28:30.622Z,995.66
2018-10-09T03:29:30.622Z,995.65
2018-10-09T03:30:30.618Z,995.59
2018-10-09T03:31:30.614Z,995.65
2018-10-09T03:32:30.611Z,995.57
2018-10-09T03:33:31.407Z,995.59
2018-10-09T03:34:30.603Z,995.58
2018-10-09T03:35:30.619Z,995.57
2018-10-09T03:36:30.600Z,995.56
2018-10-09T03:37:30.597Z,995.58
2018-10-09T03:38:30.586Z,995.6
2018-10-09T03:39:30.584Z,995.62
2018-10-09T03:40:30.578Z,995.64
2018-10-09T03:41:30.573Z,995.66
2018-10-09T03:42:30.571Z,995.67
2018-10-09T03:43:30.566Z,995.69
2018-10-09T03:44:30.563Z,995.68
2018-10-09T03:45:30.560Z,995.68
2018-10-09T03:46:30.562Z,995.67
2018-10-09T03:47:30.550Z,995.63
2018-10-09T03:48:30.568Z,995.64
2018-10-09T03:49:30.543Z,995.58
2018-10-09T03:50:30.544Z,995.63
2018-10-09T03:51:30.564Z,995.58
2018-10-09T03:52:30.535Z,995.6
2018-10-09T03:53:30.528Z,995.6
2018-10-09T03:54:30.523Z,995.65
2018-10-09T03:55:30.527Z,995.64
2018-10-09T03:56:30.518Z,995.62
2018-10-09T03:57:30.512Z,995.67
2018-10-09T03:58:30.508Z,995.68
2018-10-09T03:59:30.511Z,995.69
2018-10-09T04:00:30.508Z,995.74
2018-10-09T04:01:30.518Z,995.75
2018-10-09T04:02:30.496Z,995.81
2018-10-09T04:03:30.493Z,995.8
2018-10-09T04:04:30.514Z,995.79
2018-10-09T04:05:30.485Z,995.84
2018-10-09T04:06:30.479Z,995.79
2018-10-09T04:07:30.475Z,995.83
2018-10-09T04:08:30.473Z,995.78
2018-10-09T04:09:30.540Z,995.76
2018-10-09T04:10:30.466Z,995.75
2018-10-09T04:11:30.462Z,995.77
2018-10-09T04:12:30.488Z,995.82
2018-10-09T04:13:30.454Z,995.8
2018-10-09T04:14:30.452Z,995.77
2018-10-09T04:15:30.445Z,995.76
2018-10-09T04:16:30.443Z,995.74
2018-10-09T04:17:30.441Z,995.75
2018-10-09T04:18:30.436Z,995.77
2018-10-09T04:19:30.510Z,995.79
2018-10-09T04:20:30.429Z,995.83
2018-10-09T04:21:30.426Z,995.81
2018-10-09T04:22:30.427Z,995.84
2018-10-09T04:23:30.416Z,995.81
2018-10-09T04:24:30.435Z,995.83
2018-10-09T04:25:30.411Z,995.85
2018-10-09T04:26:30.422Z,995.84
2018-10-09T04:27:30.403Z,995.86
2018-10-09T04:28:30.399Z,995.89
2018-10-09T04:29:30.462Z,995.91
2018-10-09T04:30:30.392Z,995.87
2018-10-09T04:31:30.388Z,995.85
2018-10-09T04:32:30.384Z,995.86
2018-10-09T04:33:30.386Z,995.84
2018-10-09T04:34:30.378Z,995.8
2018-10-09T04:35:30.402Z,995.87
2018-10-09T04:36:30.388Z,995.83
2018-10-09T04:37:30.367Z,995.84
2018-10-09T04:38:30.367Z,995.85
2018-10-09T04:39:30.382Z,995.88
2018-10-09T04:40:30.358Z,995.91
2018-10-09T04:41:30.352Z,996.01
2018-10-09T04:42:30.348Z,996.03
2018-10-09T04:43:30.344Z,996.06
2018-10-09T04:44:30.342Z,996.1
2018-10-09T04:45:30.384Z,996.1
2018-10-09T04:46:30.336Z,996.12
2018-10-09T04:47:30.328Z,996.11
2018-10-09T04:48:30.327Z,996.12
2018-10-09T04:49:30.324Z,996.09
2018-10-09T04:50:30.323Z,996.09
2018-10-09T04:51:30.322Z,996.07
2018-10-09T04:52:30.312Z,996.06
2018-10-09T04:53:30.314Z,996.02
2018-10-09T04:54:30.312Z,996.03
2018-10-09T04:55:30.306Z,995.99
2018-10-09T04:56:30.300Z,995.98
2018-10-09T04:57:30.297Z,995.94
2018-10-09T04:58:30.301Z,995.96
2018-10-09T04:59:30.295Z,995.92
2018-10-09T05:00:30.342Z,995.9
2018-10-09T05:01:30.288Z,995.97
2018-10-09T05:02:30.280Z,995.97
2018-10-09T05:03:30.283Z,995.95
2018-10-09T05:04:30.277Z,995.95
2018-10-09T05:05:30.270Z,995.94
2018-10-09T05:06:30.271Z,995.95
2018-10-09T05:07:30.263Z,995.93
2018-10-09T05:08:30.263Z,995.93
2018-10-09T05:09:30.263Z,995.91
2018-10-09T05:10:30.256Z,995.92
2018-10-09T05:11:30.255Z,995.97
2018-10-09T05:12:30.257Z,995.89
2018-10-09T05:13:30.246Z,995.95
2018-10-09T05:14:30.247Z,995.91
2018-10-09T05:15:30.238Z,995.95
2018-10-09T05:16:30.237Z,995.97
2018-10-09T05:17:30.232Z,995.94
2018-10-09T05:18:30.231Z,995.9
2018-10-09T05:19:30.235Z,995.92
2018-10-09T05:20:30.232Z,995.94
2018-10-09T05:21:30.223Z,995.96
2018-10-09T05:22:30.219Z,995.93
2018-10-09T05:23:30.215Z,995.9
2018-10-09T05:24:30.213Z,995.91
2018-10-09T05:25:30.209Z,995.97
2018-10-09T05:26:30.209Z,995.93
2018-10-09T05:27:30.217Z,995.91
2018-10-09T05:28:30.210Z,995.94
2018-10-09T05:29:30.200Z,995.95
2018-10-09T05:30:30.196Z,996.01
2018-10-09T05:31:30.254Z,996
2018-10-09T05:32:30.191Z,996.08
2018-10-09T05:33:30.194Z,996.07
2018-10-09T05:34:30.190Z,996.06
2018-10-09T05:35:30.186Z,996.07
2018-10-09T05:36:30.186Z,996.09
2018-10-09T05:37:30.179Z,996.08
2018-10-09T05:38:30.170Z,996.09
2018-10-09T05:39:30.171Z,996.15
2018-10-09T05:40:30.168Z,996.19
2018-10-09T05:41:30.165Z,996.17
2018-10-09T05:42:30.161Z,996.17
2018-10-09T05:43:30.157Z,996.23
2018-10-09T05:44:30.163Z,996.22
2018-10-09T05:45:30.151Z,996.21
2018-10-09T05:46:30.154Z,996.25
2018-10-09T05:47:30.155Z,996.28
2018-10-09T05:48:30.152Z,996.28
2018-10-09T05:49:30.148Z,996.31
2018-10-09T05:50:30.138Z,996.3
2018-10-09T05:51:30.142Z,996.36
2018-10-09T05:52:30.145Z,996.36
2018-10-09T05:53:30.146Z,996.39
2018-10-09T05:54:30.138Z,996.39
2018-10-09T05:55:30.139Z,996.4
2018-10-09T05:56:30.120Z,996.39
2018-10-09T05:57:30.120Z,996.42
2018-10-09T05:58:30.116Z,996.44
2018-10-09T05:59:30.113Z,996.45
2018-10-09T06:00:30.108Z,996.45
2018-10-09T06:01:30.105Z,996.44
2018-10-09T06:02:30.106Z,996.49
2018-10-09T06:03:30.109Z,996.48
2018-10-09T06:04:31.708Z,996.49
2018-10-09T06:05:30.102Z,996.53
2018-10-09T06:06:30.090Z,996.46
2018-10-09T06:07:30.099Z,996.48
2018-10-09T06:08:30.094Z,996.48
2018-10-09T06:09:30.083Z,996.51
2018-10-09T06:10:30.083Z,996.46
2018-10-09T06:11:30.096Z,996.51
2018-10-09T06:12:30.076Z,996.5
2018-10-09T06:13:30.071Z,996.49
2018-10-09T06:14:30.071Z,996.45
2018-10-09T06:15:30.124Z,996.46
2018-10-09T06:16:30.064Z,996.46
2018-10-09T06:17:30.062Z,996.38
2018-10-09T06:18:30.061Z,996.38
2018-10-09T06:19:30.059Z,996.35
2018-10-09T06:20:30.067Z,996.35
2018-10-09T06:21:30.052Z,996.36
2018-10-09T06:22:30.049Z,996.33
2018-10-09T06:23:30.045Z,996.34
2018-10-09T06:24:30.058Z,996.34
2018-10-09T06:25:30.046Z,996.31
2018-10-09T06:26:30.039Z,996.35
2018-10-09T06:27:30.041Z,996.38
2018-10-09T06:28:30.120Z,996.37
2018-10-09T06:29:30.029Z,996.42
2018-10-09T06:30:30.028Z,996.36
2018-10-09T06:31:30.032Z,996.36
2018-10-09T06:32:30.029Z,996.4
2018-10-09T06:33:30.020Z,996.36
2018-10-09T06:34:30.017Z,996.38
2018-10-09T06:35:30.016Z,996.37
2018-10-09T06:36:30.013Z,996.41
2018-10-09T06:37:30.016Z,996.33
2018-10-09T06:38:30.011Z,996.33
2018-10-09T06:39:30.015Z,996.28
2018-10-09T06:40:30.076Z,996.3
2018-10-09T06:41:30.036Z,996.28
2018-10-09T06:42:30.022Z,996.29
2018-10-09T06:43:30.002Z,996.29
2018-10-09T06:44:29.999Z,996.28
2018-10-09T06:45:29.999Z,996.25
2018-10-09T06:46:29.994Z,996.29
2018-10-09T06:47:30.062Z,996.29
2018-10-09T06:48:29.993Z,996.25
2018-10-09T06:49:29.985Z,996.27
2018-10-09T06:50:29.986Z,996.27
2018-10-09T06:51:29.983Z,996.29
2018-10-09T06:52:29.981Z,996.29
2018-10-09T06:53:30.063Z,996.28
2018-10-09T06:54:30.104Z,996.29
2018-10-09T06:55:29.979Z,996.29
2018-10-09T06:56:29.984Z,996.33
2018-10-09T06:57:29.977Z,996.32
2018-10-09T06:58:29.979Z,996.34
2018-10-09T06:59:29.977Z,996.34
2018-10-09T07:00:29.993Z,996.3
2018-10-09T07:01:29.973Z,996.32
2018-10-09T07:02:29.966Z,996.39
2018-10-09T07:03:29.966Z,996.38
2018-10-09T07:04:29.963Z,996.38
2018-10-09T07:05:29.971Z,996.38
2018-10-09T07:06:30.006Z,996.36
2018-10-09T07:07:29.958Z,996.35
2018-10-09T07:08:29.957Z,996.35
2018-10-09T07:09:29.961Z,996.39
2018-10-09T07:10:29.954Z,996.39
2018-10-09T07:11:30.002Z,996.39
2018-10-09T07:12:29.951Z,996.42
2018-10-09T07:13:29.948Z,996.41
2018-10-09T07:14:29.945Z,996.45
2018-10-09T07:15:29.944Z,996.49
2018-10-09T07:16:29.943Z,996.46
2018-10-09T07:17:29.940Z,996.46
2018-10-09T07:18:29.957Z,996.49
2018-10-09T07:19:29.938Z,996.41
2018-10-09T07:20:29.938Z,996.4
2018-10-09T07:21:29.934Z,996.4
2018-10-09T07:22:29.935Z,996.39
2018-10-09T07:23:29.946Z,996.37
2018-10-09T07:24:29.943Z,996.37
2018-10-09T07:25:29.930Z,996.39
2018-10-09T07:26:29.932Z,996.44
2018-10-09T07:27:29.932Z,996.49
2018-10-09T07:28:29.935Z,996.5
2018-10-09T07:29:29.935Z,996.48
2018-10-09T07:30:29.944Z,996.46
2018-10-09T07:31:29.933Z,996.48
2018-10-09T07:32:29.922Z,996.47
2018-10-09T07:33:29.921Z,996.5
2018-10-09T07:34:29.917Z,996.45
2018-10-09T07:35:29.918Z,996.44
2018-10-09T07:36:29.916Z,996.49
2018-10-09T07:37:29.932Z,996.48
2018-10-09T07:38:29.913Z,996.48
2018-10-09T07:39:29.911Z,996.51
2018-10-09T07:40:29.911Z,996.54
2018-10-09T07:41:29.909Z,996.54
2018-10-09T07:42:29.908Z,996.57
2018-10-09T07:43:29.906Z,996.56
2018-10-09T07:44:29.913Z,996.56
2018-10-09T07:45:29.908Z,996.6
2018-10-09T07:46:29.899Z,996.63
2018-10-09T07:47:29.897Z,996.62
2018-10-09T07:48:29.901Z,996.61
2018-10-09T07:49:29.903Z,996.65
2018-10-09T07:50:29.919Z,996.64
2018-10-09T07:51:29.896Z,996.7
2018-10-09T07:52:29.894Z,996.71
2018-10-09T07:53:29.897Z,996.65
2018-10-09T07:54:29.893Z,996.71
2018-10-09T07:55:29.893Z,996.72
2018-10-09T07:56:29.894Z,996.69
2018-10-09T07:57:29.898Z,996.73
2018-10-09T07:58:29.905Z,996.72
2018-10-09T07:59:29.888Z,996.72
2018-10-09T08:00:29.894Z,996.69
2018-10-09T08:01:29.893Z,996.71
2018-10-09T08:02:29.889Z,996.74
2018-10-09T08:03:29.896Z,996.74
2018-10-09T08:04:29.892Z,996.74
2018-10-09T08:05:29.889Z,996.75
2018-10-09T08:06:29.892Z,996.74
2018-10-09T08:07:29.887Z,996.71
2018-10-09T08:08:29.878Z,996.75
2018-10-09T08:09:29.879Z,996.78
2018-10-09T08:10:29.906Z,996.72
2018-10-09T08:11:29.881Z,996.69
2018-10-09T08:12:29.892Z,996.69
2018-10-09T08:13:29.893Z,996.66
2018-10-09T08:14:29.878Z,996.63
2018-10-09T08:15:29.891Z,996.66
2018-10-09T08:16:29.896Z,996.68
2018-10-09T08:17:29.884Z,996.67
2018-10-09T08:18:29.878Z,996.68
2018-10-09T08:19:29.893Z,996.69
2018-10-09T08:20:29.877Z,996.71
2018-10-09T08:21:29.881Z,996.76
2018-10-09T08:22:29.936Z,996.77
2018-10-09T08:23:29.884Z,996.77
2018-10-09T08:24:29.885Z,996.81
2018-10-09T08:25:29.887Z,996.8
2018-10-09T08:26:29.880Z,996.8
2018-10-09T08:27:29.877Z,996.77
2018-10-09T08:28:29.879Z,996.8
2018-10-09T08:29:29.876Z,996.77
2018-10-09T08:30:29.878Z,996.78
2018-10-09T08:31:29.875Z,996.78
2018-10-09T08:32:29.881Z,996.77
2018-10-09T08:33:29.881Z,996.78
2018-10-09T08:34:29.891Z,996.76
2018-10-09T08:35:29.878Z,996.76
2018-10-09T08:36:29.881Z,996.74
2018-10-09T08:37:29.888Z,996.8
2018-10-09T08:38:29.916Z,996.76
2018-10-09T08:39:29.883Z,996.74
2018-10-09T08:40:30.000Z,996.71
2018-10-09T08:41:29.878Z,996.66
2018-10-09T08:42:29.878Z,996.73
2018-10-09T08:43:29.878Z,996.75
2018-10-09T08:44:29.878Z,996.71
2018-10-09T08:45:29.879Z,996.73
2018-10-09T08:46:29.879Z,996.72
2018-10-09T08:47:29.887Z,996.72
2018-10-09T08:48:29.880Z,996.69
2018-10-09T08:49:29.882Z,996.72
2018-10-09T08:50:29.884Z,996.72
2018-10-09T08:51:29.883Z,996.72
2018-10-09T08:52:29.894Z,996.73
2018-10-09T08:53:29.894Z,996.77
2018-10-09T08:54:29.898Z,996.77
2018-10-09T08:55:29.891Z,996.78
2018-10-09T08:56:29.896Z,996.84
2018-10-09T08:57:30.059Z,996.84
2018-10-09T08:58:29.891Z,996.85
2018-10-09T08:59:29.929Z,996.83
2018-10-09T09:00:29.895Z,996.81
2018-10-09T09:01:29.903Z,996.82
2018-10-09T09:02:29.890Z,996.82
2018-10-09T09:03:29.941Z,996.87
2018-10-09T09:04:29.891Z,996.83
2018-10-09T09:05:31.500Z,996.83
2018-10-09T09:06:29.893Z,996.83
2018-10-09T09:07:29.894Z,996.83
2018-10-09T09:08:29.900Z,996.86
2018-10-09T09:09:29.906Z,996.87
2018-10-09T09:10:29.918Z,996.86
2018-10-09T09:11:29.899Z,996.9
2018-10-09T09:12:29.905Z,996.93
2018-10-09T09:13:29.901Z,996.87
2018-10-09T09:14:29.914Z,996.89
2018-10-09T09:15:29.993Z,996.85
2018-10-09T09:16:29.900Z,996.86
2018-10-09T09:17:29.904Z,996.85
2018-10-09T09:18:29.905Z,996.79
2018-10-09T09:19:29.907Z,996.82
2018-10-09T09:20:29.954Z,996.8
2018-10-09T09:21:29.909Z,996.79
2018-10-09T09:22:29.912Z,996.8
2018-10-09T09:23:29.912Z,996.83
2018-10-09T09:24:29.920Z,996.82
2018-10-09T09:25:29.913Z,996.85
2018-10-09T09:26:30.001Z,996.82
2018-10-09T09:27:30.021Z,996.81
2018-10-09T09:28:29.916Z,996.83
2018-10-09T09:29:29.928Z,996.84
2018-10-09T09:30:29.919Z,996.8
2018-10-09T09:31:29.921Z,996.82
2018-10-09T09:32:29.922Z,996.8
2018-10-09T09:33:29.925Z,996.78
2018-10-09T09:34:29.926Z,996.79
2018-10-09T09:35:29.926Z,996.76
2018-10-09T09:36:29.929Z,996.72
2018-10-09T09:37:29.950Z,996.69
2018-10-09T09:38:29.943Z,996.69
2018-10-09T09:39:30.433Z,996.67
2018-10-09T09:40:29.937Z,996.67
2018-10-09T09:41:29.935Z,996.64
2018-10-09T09:42:29.937Z,996.64
2018-10-09T09:43:29.936Z,996.58
2018-10-09T09:44:29.945Z,996.57
2018-10-09T09:45:29.940Z,996.57
2018-10-09T09:46:29.953Z,996.54
2018-10-09T09:47:29.946Z,996.53
2018-10-09T09:48:29.955Z,996.49
2018-10-09T09:49:29.948Z,996.49
2018-10-09T09:50:29.948Z,996.48
2018-10-09T09:51:29.951Z,996.48
2018-10-09T09:52:29.954Z,996.49
2018-10-09T09:53:29.967Z,996.42
2018-10-09T09:54:30.027Z,996.44
2018-10-09T09:55:30.031Z,996.44
2018-10-09T09:56:29.957Z,996.41
2018-10-09T09:57:29.960Z,996.4
2018-10-09T09:58:30.115Z,996.39
2018-10-09T09:59:29.965Z,996.39
2018-10-09T10:00:29.966Z,996.37
2018-10-09T10:01:29.967Z,996.37
2018-10-09T10:02:29.970Z,996.33
2018-10-09T10:03:30.024Z,996.34
2018-10-09T10:04:29.973Z,996.34
2018-10-09T10:05:29.978Z,996.3
2018-10-09T10:06:29.980Z,996.34
2018-10-09T10:07:29.982Z,996.32
2018-10-09T10:08:29.985Z,996.33
2018-10-09T10:09:29.982Z,996.31
2018-10-09T10:10:29.985Z,996.33
2018-10-09T10:11:29.985Z,996.3
2018-10-09T10:12:29.987Z,996.32
2018-10-09T10:13:29.990Z,996.29
2018-10-09T10:14:29.990Z,996.28
2018-10-09T10:15:29.992Z,996.29
2018-10-09T10:16:29.996Z,996.28
2018-10-09T10:17:29.994Z,996.25
2018-10-09T10:18:30.001Z,996.23
2018-10-09T10:19:30.007Z,996.23
2018-10-09T10:20:30.005Z,996.23
2018-10-09T10:21:30.113Z,996.21
2018-10-09T10:22:30.023Z,996.21
2018-10-09T10:23:30.018Z,996.2
2018-10-09T10:24:30.021Z,996.16
2018-10-09T10:25:30.018Z,996.18
2018-10-09T10:26:30.016Z,996.15
2018-10-09T10:27:30.019Z,996.16
2018-10-09T10:28:30.017Z,996.17
2018-10-09T10:29:30.014Z,996.13
2018-10-09T10:30:30.019Z,996.11
2018-10-09T10:31:30.019Z,996.12
2018-10-09T10:32:30.027Z,996.13
2018-10-09T10:33:30.027Z,996.13
2018-10-09T10:34:30.025Z,996.09
2018-10-09T10:35:30.084Z,996.14
2018-10-09T10:36:31.137Z,996.11
2018-10-09T10:37:30.033Z,996.09
2018-10-09T10:38:30.043Z,996.13
2018-10-09T10:39:30.035Z,996.09
2018-10-09T10:40:30.038Z,996.08
2018-10-09T10:41:30.046Z,996.05
2018-10-09T10:42:30.046Z,996.03
2018-10-09T10:43:30.047Z,995.99
2018-10-09T10:44:30.050Z,996.01
2018-10-09T10:45:30.054Z,995.99
2018-10-09T10:46:30.055Z,996
2018-10-09T10:47:30.055Z,995.96
2018-10-09T10:48:30.084Z,995.94
2018-10-09T10:49:30.159Z,995.91
2018-10-09T10:50:30.063Z,995.94
2018-10-09T10:51:30.071Z,995.95
2018-10-09T10:52:30.067Z,995.9
2018-10-09T10:53:30.070Z,995.92
2018-10-09T10:54:30.071Z,995.89
2018-10-09T10:55:30.075Z,995.96
2018-10-09T10:56:30.075Z,995.95
2018-10-09T10:57:30.076Z,995.87
2018-10-09T10:58:30.088Z,995.88
2018-10-09T10:59:30.093Z,995.95
2018-10-09T11:00:30.090Z,995.83
2018-10-09T11:01:30.201Z,995.83
2018-10-09T11:02:30.091Z,995.82
2018-10-09T11:03:30.094Z,995.79
2018-10-09T11:04:30.093Z,995.79
2018-10-09T11:05:30.096Z,995.78
2018-10-09T11:06:30.100Z,995.8
2018-10-09T11:07:30.101Z,995.77
2018-10-09T11:08:30.206Z,995.72
2018-10-09T11:09:30.106Z,995.7
2018-10-09T11:10:30.114Z,995.66
2018-10-09T11:11:30.112Z,995.65
2018-10-09T11:12:30.123Z,995.65
2018-10-09T11:13:30.114Z,995.6
2018-10-09T11:14:30.167Z,995.65
2018-10-09T11:15:30.120Z,995.59
2018-10-09T11:16:30.123Z,995.65
2018-10-09T11:17:30.130Z,995.66
2018-10-09T11:18:30.130Z,995.58
2018-10-09T11:19:30.127Z,995.56
2018-10-09T11:20:30.142Z,995.53
2018-10-09T11:21:30.166Z,995.57
2018-10-09T11:22:30.134Z,995.53
2018-10-09T11:23:30.137Z,995.54
2018-10-09T11:24:30.141Z,995.52
2018-10-09T11:25:30.144Z,995.6
2018-10-09T11:26:30.145Z,995.59
2018-10-09T11:27:30.150Z,995.59
2018-10-09T11:28:30.155Z,995.56
2018-10-09T11:29:30.157Z,995.58
2018-10-09T11:30:30.153Z,995.55
2018-10-09T11:31:30.161Z,995.58
2018-10-09T11:32:30.219Z,995.62
2018-10-09T11:33:30.162Z,995.51
2018-10-09T11:34:30.168Z,995.52
2018-10-09T11:35:30.167Z,995.55
2018-10-09T11:36:30.169Z,995.59
2018-10-09T11:37:30.177Z,995.53
2018-10-09T11:38:30.175Z,995.49
2018-10-09T11:39:30.177Z,995.47
2018-10-09T11:40:30.204Z,995.45
2018-10-09T11:41:30.183Z,995.46
2018-10-09T11:42:30.189Z,995.47
2018-10-09T11:43:30.185Z,995.5
2018-10-09T11:44:30.194Z,995.43
2018-10-09T11:45:30.192Z,995.44
2018-10-09T11:46:30.193Z,995.43
2018-10-09T11:47:30.198Z,995.42
2018-10-09T11:48:30.214Z,995.45
2018-10-09T11:49:30.200Z,995.44
2018-10-09T11:50:30.205Z,995.37
2018-10-09T11:51:30.206Z,995.35
2018-10-09T11:52:30.212Z,995.35
2018-10-09T11:53:30.208Z,995.32
2018-10-09T11:54:30.215Z,995.32
2018-10-09T11:55:30.234Z,995.3
2018-10-09T11:56:30.216Z,995.23
2018-10-09T11:57:30.218Z,995.26
2018-10-09T11:58:30.251Z,995.29
2018-10-09T11:59:30.230Z,995.22
2018-10-09T12:00:30.229Z,995.22
2018-10-09T12:01:30.241Z,995.24
2018-10-09T12:02:30.248Z,995.25
2018-10-09T12:03:30.239Z,995.24
2018-10-09T12:04:30.240Z,995.2
2018-10-09T12:05:30.243Z,995.19
2018-10-09T12:06:30.245Z,995.15
2018-10-09T12:07:30.248Z,995.17
2018-10-09T12:08:30.251Z,995.15
2018-10-09T12:09:30.259Z,995.11
2018-10-09T12:10:30.262Z,995.09
2018-10-09T12:11:30.260Z,995.09
2018-10-09T12:12:30.269Z,995.07
2018-10-09T12:13:30.269Z,995.03
2018-10-09T12:14:30.270Z,995.02
2018-10-09T12:15:30.277Z,995.02
2018-10-09T12:16:30.276Z,995.04
2018-10-09T12:17:30.280Z,995.01
2018-10-09T12:18:30.280Z,995.03
2018-10-09T12:19:30.286Z,994.99
2018-10-09T12:20:30.291Z,994.98
2018-10-09T12:21:30.300Z,994.97
2018-10-09T12:22:30.294Z,994.95
2018-10-09T12:23:30.301Z,994.96
2018-10-09T12:24:30.301Z,994.94
2018-10-09T12:25:30.307Z,994.95
2018-10-09T12:26:30.315Z,994.9
2018-10-09T12:27:30.320Z,994.93
2018-10-09T12:28:30.317Z,994.96
2018-10-09T12:29:30.317Z,994.96
2018-10-09T12:30:30.320Z,994.96